Time;durP1;ratioP1;P1;durP2;ratioP2;P2;SDS_P1;SDS_P2;PMS_P1;PMS_P2;Temp;Humidity;BMP_temperature;BMP_pressure;BME280_temperature;BME280_humidity;BME280_pressure;Samples;Min_cycle;Max_cycle;Signal;HPM_P1;HPM_P2
2022/10/25 00:02:15;;;;;;;13.85;7.20;;;13.20;99.90;;;;;;5006950;28;20042;-78
2022/10/25 00:04:41;;;;;;;14.88;7.07;;;13.10;99.90;;;;;;4971568;28;20117;-78
2022/10/25 00:07:07;;;;;;;19.70;9.95;;;13.20;99.90;;;;;;4977247;28;20146;-78
2022/10/25 00:09:33;;;;;;;15.20;8.13;;;13.20;99.90;;;;;;4989855;28;20050;-78
2022/10/25 00:11:58;;;;;;;16.48;8.38;;;13.20;99.90;;;;;;4977097;28;20378;-78
2022/10/25 00:14:24;;;;;;;16.58;8.75;;;13.20;99.90;;;;;;4967471;28;20027;-78
2022/10/25 00:16:49;;;;;;;17.42;8.63;;;13.20;99.90;;;;;;4996631;28;20077;-78
2022/10/25 00:19:15;;;;;;;13.93;8.15;;;13.20;99.90;;;;;;4995200;28;20042;-77
2022/10/25 00:21:40;;;;;;;13.82;9.00;;;13.20;99.90;;;;;;4996294;28;20049;-77
2022/10/25 00:24:06;;;;;;;19.55;9.10;;;13.20;99.90;;;;;;4996378;28;20045;-78
2022/10/25 00:26:33;;;;;;;17.77;9.55;;;13.20;99.90;;;;;;4995056;28;20089;-78
2022/10/25 00:28:58;;;;;;;19.35;9.45;;;13.20;99.90;;;;;;4995972;28;20523;-78
2022/10/25 00:31:24;;;;;;;18.23;10.30;;;13.20;99.90;;;;;;4996519;28;20030;-78
2022/10/25 00:33:50;;;;;;;16.60;10.18;;;13.20;99.90;;;;;;4995244;28;20555;-78
2022/10/25 00:36:19;;;;;;;14.75;10.13;;;13.20;99.90;;;;;;4980122;28;20042;-77
2022/10/25 00:38:45;;;;;;;18.60;10.30;;;13.10;99.90;;;;;;4978214;28;20562;-78
2022/10/25 00:41:13;;;;;;;21.58;11.27;;;13.20;99.90;;;;;;5011442;28;20042;-78
2022/10/25 00:43:43;;;;;;;18.50;11.32;;;13.20;99.90;;;;;;4978453;28;20062;-77
2022/10/25 00:46:24;;;;;;;17.23;10.95;;;13.30;99.90;;;;;;4996186;28;20050;-78
2022/10/25 00:49:03;;;;;;;18.92;11.68;;;13.30;99.90;;;;;;4979512;28;20089;-77
2022/10/25 00:51:37;;;;;;;20.25;11.52;;;13.20;99.90;;;;;;4996211;28;20060;-78
2022/10/25 00:54:04;;;;;;;15.93;11.00;;;13.20;99.90;;;;;;4993434;28;20046;-77
2022/10/25 00:56:35;;;;;;;21.88;12.38;;;13.30;99.90;;;;;;4995753;28;20054;-77
2022/10/25 00:59:06;;;;;;;19.77;11.02;;;13.30;99.90;;;;;;4994777;28;20058;-78
2022/10/25 01:01:32;;;;;;;19.27;11.18;;;13.30;99.90;;;;;;5012090;28;20137;-78
2022/10/25 01:04:01;;;;;;;21.92;12.13;;;13.30;99.90;;;;;;4978128;28;20496;-78
2022/10/25 01:06:41;;;;;;;16.27;11.23;;;13.40;99.90;;;;;;4995761;28;20440;-78
2022/10/25 01:09:15;;;;;;;17.67;11.13;;;13.40;99.90;;;;;;4977514;28;20053;-78
2022/10/25 01:11:41;;;;;;;18.58;11.18;;;13.50;99.90;;;;;;4978686;28;20035;-78
2022/10/25 01:14:10;;;;;;;18.02;10.85;;;13.50;99.90;;;;;;4995394;28;20563;-77
2022/10/25 01:16:46;;;;;;;20.33;11.45;;;13.50;99.90;;;;;;4994310;28;20051;-77
2022/10/25 01:19:23;;;;;;;17.85;10.95;;;13.50;99.90;;;;;;4994286;28;20042;-77
2022/10/25 01:21:57;;;;;;;20.10;9.48;;;13.50;99.90;;;;;;4979278;28;20400;-77
2022/10/25 01:24:58;;;;;;;15.57;9.85;;;13.50;99.90;;;;;;4994241;28;20078;-77
2022/10/25 01:27:53;;;;;;;16.85;10.30;;;13.50;99.90;;;;;;4995464;28;20718;-77
2022/10/25 01:30:25;;;;;;;18.35;9.85;;;13.50;99.90;;;;;;4993054;28;20094;-77
2022/10/25 01:33:30;;;;;;;16.35;9.75;;;13.60;99.90;;;;;;5010427;28;20045;-77
2022/10/25 01:36:12;;;;;;;17.08;9.95;;;13.60;99.90;;;;;;4995273;28;20488;-77
2022/10/25 01:39:01;;;;;;;15.95;9.77;;;13.50;99.90;;;;;;5010335;28;20043;-76
2022/10/25 01:41:51;;;;;;;15.45;9.90;;;13.50;99.90;;;;;;4977215;28;20080;-77
2022/10/25 01:44:37;;;;;;;17.17;9.23;;;13.50;99.90;;;;;;4994200;28;20042;-77
2022/10/25 01:47:14;;;;;;;18.70;9.73;;;13.50;99.90;;;;;;4978289;28;20050;-77
2022/10/25 01:49:56;;;;;;;16.20;10.25;;;13.60;99.90;;;;;;5007779;28;20078;-76
2022/10/25 01:52:23;;;;;;;19.13;9.77;;;13.50;99.90;;;;;;5001342;28;20042;-77
2022/10/25 01:54:50;;;;;;;21.98;10.50;;;13.50;99.90;;;;;;4994614;28;20038;-76
2022/10/25 01:57:15;;;;;;;15.38;9.90;;;13.50;99.90;;;;;;4977777;28;20049;-76
2022/10/25 01:59:59;;;;;;;17.65;9.00;;;13.50;99.90;;;;;;4994429;28;20137;-77
2022/10/25 02:02:31;;;;;;;16.67;9.40;;;13.50;99.90;;;;;;4994483;28;20046;-77
2022/10/25 02:05:09;;;;;;;14.82;10.23;;;13.50;99.90;;;;;;4994767;28;20045;-77
2022/10/25 02:07:42;;;;;;;14.93;9.32;;;13.50;99.90;;;;;;4977681;28;20138;-76
2022/10/25 02:10:17;;;;;;;16.92;10.63;;;13.50;99.90;;;;;;4977342;28;20049;-76
2022/10/25 02:12:55;;;;;;;17.00;9.57;;;13.50;99.90;;;;;;4976571;28;20049;-77
2022/10/25 02:15:27;;;;;;;14.90;8.90;;;13.50;99.90;;;;;;4978428;28;20128;-76
2022/10/25 02:18:01;;;;;;;17.98;10.07;;;13.50;99.90;;;;;;5010567;28;20493;-76
2022/10/25 02:20:32;;;;;;;15.98;9.93;;;13.50;99.90;;;;;;4977102;28;20042;-76
2022/10/25 02:23:02;;;;;;;17.88;10.30;;;13.50;99.90;;;;;;5009716;28;20050;-76
2022/10/25 02:25:31;;;;;;;14.68;9.82;;;13.50;99.90;;;;;;4977945;28;20045;-77
2022/10/25 02:27:59;;;;;;;19.25;10.77;;;13.50;99.90;;;;;;4977849;28;20038;-76
2022/10/25 02:30:26;;;;;;;15.90;9.70;;;13.50;99.90;;;;;;4977255;28;20104;-76
2022/10/25 02:32:52;;;;;;;14.23;9.57;;;13.50;99.90;;;;;;4976370;28;20045;-76
2022/10/25 02:35:18;;;;;;;15.57;9.15;;;13.50;99.90;;;;;;5009467;28;20034;-76
2022/10/25 02:37:44;;;;;;;16.55;9.55;;;13.50;99.90;;;;;;4993854;28;20040;-76
2022/10/25 02:40:10;;;;;;;18.90;9.88;;;13.50;99.90;;;;;;4976735;28;20046;-77
2022/10/25 02:42:36;;;;;;;16.30;10.23;;;13.60;99.90;;;;;;4992077;28;20092;-76
2022/10/25 02:45:01;;;;;;;19.75;9.93;;;13.50;99.90;;;;;;4993825;28;20046;-77
2022/10/25 02:47:27;;;;;;;15.82;8.77;;;13.50;99.90;;;;;;4993034;28;20049;-76
2022/10/25 02:49:52;;;;;;;15.48;9.48;;;13.60;99.90;;;;;;4992558;28;20046;-76
2022/10/25 02:52:18;;;;;;;16.05;8.90;;;13.50;99.90;;;;;;4993721;28;20561;-76
2022/10/25 02:54:43;;;;;;;14.85;9.80;;;13.50;99.90;;;;;;4993602;28;20507;-77
2022/10/25 02:57:09;;;;;;;17.38;10.35;;;13.50;99.90;;;;;;5009012;28;20037;-76
2022/10/25 02:59:34;;;;;;;16.50;9.30;;;13.60;99.90;;;;;;4991887;28;20141;-76
2022/10/25 03:02:00;;;;;;;20.55;9.80;;;13.50;99.90;;;;;;4977040;28;20476;-76
2022/10/25 03:04:26;;;;;;;14.65;8.95;;;13.50;99.90;;;;;;5010032;28;20050;-76
2022/10/25 03:06:51;;;;;;;16.40;9.65;;;13.50;99.90;;;;;;4977244;28;20042;-76
2022/10/25 03:09:17;;;;;;;17.42;9.43;;;13.50;99.90;;;;;;5007745;28;20112;-76
2022/10/25 03:11:42;;;;;;;16.55;8.73;;;13.50;99.90;;;;;;4976125;28;20039;-76
2022/10/25 03:14:08;;;;;;;14.82;9.75;;;13.60;99.90;;;;;;4993141;28;20382;-76
2022/10/25 03:16:33;;;;;;;14.63;9.25;;;13.50;99.90;;;;;;4992164;28;20056;-76
2022/10/25 03:18:59;;;;;;;16.13;8.70;;;13.60;99.90;;;;;;4993066;28;20053;-76
2022/10/25 03:21:25;;;;;;;15.35;9.32;;;13.60;99.90;;;;;;5007726;28;20490;-76
2022/10/25 03:23:51;;;;;;;18.63;9.68;;;13.50;99.90;;;;;;4992972;28;20034;-75
2022/10/25 03:26:16;;;;;;;16.65;9.75;;;13.50;99.90;;;;;;5009326;28;20042;-76
2022/10/25 03:28:42;;;;;;;13.88;9.55;;;13.60;99.90;;;;;;4992069;28;20054;-76
2022/10/25 03:31:12;;;;;;;20.00;9.30;;;13.50;99.90;;;;;;4976041;28;20069;-77
2022/10/25 03:33:38;;;;;;;15.88;9.65;;;13.50;99.90;;;;;;5009537;28;20464;-76
2022/10/25 03:36:04;;;;;;;15.73;9.15;;;13.50;99.90;;;;;;4973073;28;20125;-76
2022/10/25 03:38:30;;;;;;;18.35;10.18;;;13.50;99.90;;;;;;4996418;28;20151;-76
2022/10/25 03:40:55;;;;;;;18.13;10.35;;;13.50;99.90;;;;;;5020205;28;20408;-76
2022/10/25 03:43:21;;;;;;;17.25;9.07;;;13.50;99.90;;;;;;4989949;28;20038;-76
2022/10/25 03:45:47;;;;;;;16.35;9.95;;;13.50;99.90;;;;;;4991412;28;20042;-76
2022/10/25 03:48:13;;;;;;;16.77;9.80;;;13.50;99.90;;;;;;4989924;28;20048;-76
2022/10/25 03:50:38;;;;;;;20.42;10.00;;;13.50;99.90;;;;;;5004837;28;20440;-76
2022/10/25 03:53:04;;;;;;;19.15;8.93;;;13.50;99.90;;;;;;4991666;28;20039;-76
2022/10/25 03:55:31;;;;;;;15.27;9.50;;;13.50;99.90;;;;;;4989241;28;20389;-77
2022/10/25 03:57:56;;;;;;;18.85;10.13;;;13.50;99.90;;;;;;4989326;28;20051;-76
2022/10/25 04:00:22;;;;;;;18.52;9.73;;;13.50;99.90;;;;;;4977505;28;20501;-76
2022/10/25 04:02:55;;;;;;;19.20;9.38;;;13.50;99.90;;;;;;4974472;28;20073;-77
2022/10/25 04:05:20;;;;;;;16.13;9.45;;;13.50;99.90;;;;;;4975080;28;20042;-76
2022/10/25 04:07:46;;;;;;;15.05;8.52;;;13.50;99.90;;;;;;4975514;28;20045;-76
2022/10/25 04:10:11;;;;;;;17.52;9.02;;;13.50;99.90;;;;;;5003996;28;20053;-76
2022/10/25 04:12:37;;;;;;;17.70;9.00;;;13.50;99.90;;;;;;4992296;28;20034;-76
2022/10/25 04:15:03;;;;;;;14.23;8.50;;;13.40;99.90;;;;;;4991277;28;20057;-76
2022/10/25 04:17:28;;;;;;;17.88;9.55;;;13.50;99.90;;;;;;4992319;28;20035;-76
2022/10/25 04:19:54;;;;;;;16.67;8.48;;;13.40;99.90;;;;;;5007608;28;20039;-76
2022/10/25 04:22:19;;;;;;;17.55;9.68;;;13.50;99.90;;;;;;5025233;28;20444;-76
2022/10/25 04:24:45;;;;;;;18.48;8.90;;;13.40;99.90;;;;;;5023835;28;20057;-76
2022/10/25 04:27:11;;;;;;;17.38;8.95;;;13.40;99.90;;;;;;4975583;28;20526;-76
2022/10/25 04:29:36;;;;;;;19.10;8.88;;;13.40;99.90;;;;;;4990509;28;20399;-77
2022/10/25 04:32:02;;;;;;;19.15;9.65;;;13.50;99.90;;;;;;5006957;28;20038;-76
2022/10/25 04:34:27;;;;;;;17.42;9.05;;;13.40;99.90;;;;;;4987584;28;20117;-76
2022/10/25 04:36:53;;;;;;;21.83;9.43;;;13.40;99.90;;;;;;4989854;28;20385;-76
2022/10/25 04:39:18;;;;;;;15.00;8.88;;;13.40;99.90;;;;;;4975553;28;20381;-76
2022/10/25 04:41:44;;;;;;;17.88;8.77;;;13.40;99.90;;;;;;4992112;28;20050;-76
2022/10/25 04:44:10;;;;;;;14.35;8.45;;;13.40;99.90;;;;;;4991267;28;20042;-76
2022/10/25 04:46:35;;;;;;;23.25;10.20;;;13.40;99.90;;;;;;4992385;28;20042;-76
2022/10/25 04:49:01;;;;;;;17.70;8.82;;;13.40;99.90;;;;;;5006709;28;20104;-75
2022/10/25 04:51:26;;;;;;;20.08;9.90;;;13.40;99.90;;;;;;4992841;28;20113;-75
2022/10/25 04:53:53;;;;;;;17.15;9.57;;;13.40;99.90;;;;;;5010074;28;20538;-76
2022/10/25 04:56:19;;;;;;;20.85;9.68;;;13.50;99.90;;;;;;4995054;28;20042;-75
2022/10/25 04:58:45;;;;;;;15.82;9.15;;;13.50;99.90;;;;;;4994759;28;20432;-75
2022/10/25 05:01:13;;;;;;;19.50;10.02;;;13.50;99.90;;;;;;5010909;28;20042;-75
2022/10/25 05:03:39;;;;;;;15.38;9.30;;;13.50;99.90;;;;;;4992502;28;20046;-76
2022/10/25 05:06:10;;;;;;;19.48;9.00;;;13.50;99.90;;;;;;4978766;28;20042;-76
2022/10/25 05:08:39;;;;;;;18.20;8.95;;;13.50;99.90;;;;;;4993621;28;20046;-75
2022/10/25 05:11:05;;;;;;;19.85;10.60;;;13.50;99.90;;;;;;4988443;28;20070;-75
2022/10/25 05:13:33;;;;;;;16.67;9.00;;;13.40;99.90;;;;;;5014257;28;20034;-75
2022/10/25 05:15:59;;;;;;;16.63;8.77;;;13.40;99.90;;;;;;4993419;28;20436;-75
2022/10/25 05:18:25;;;;;;;18.33;9.38;;;13.40;99.90;;;;;;4994443;28;20496;-75
2022/10/25 05:20:55;;;;;;;17.98;9.85;;;13.40;99.90;;;;;;4992606;28;20049;-75
2022/10/25 05:23:22;;;;;;;17.10;9.38;;;13.30;99.90;;;;;;4977312;28;20038;-75
2022/10/25 05:25:48;;;;;;;16.77;9.43;;;13.40;99.90;;;;;;4993363;28;20057;-76
2022/10/25 05:28:14;;;;;;;18.15;9.70;;;13.40;99.90;;;;;;4979084;28;20395;-76
2022/10/25 05:30:43;;;;;;;15.80;9.13;;;13.40;99.90;;;;;;5026085;28;20507;-76
2022/10/25 05:33:09;;;;;;;18.98;9.32;;;13.40;99.90;;;;;;4998972;28;20065;-76
2022/10/25 05:35:35;;;;;;;17.20;8.90;;;13.40;99.90;;;;;;5007649;28;20046;-76
2022/10/25 05:38:01;;;;;;;17.63;8.90;;;13.40;99.90;;;;;;4993770;28;20038;-75
2022/10/25 05:40:26;;;;;;;17.35;9.48;;;13.40;99.90;;;;;;4993060;28;20038;-75
2022/10/25 05:42:53;;;;;;;21.10;9.90;;;13.40;99.90;;;;;;4994379;28;20046;-76
2022/10/25 05:45:18;;;;;;;17.02;8.43;;;13.40;99.90;;;;;;4977473;28;20408;-76
2022/10/25 05:47:44;;;;;;;15.02;8.40;;;13.30;99.90;;;;;;4972883;28;20525;-76
2022/10/25 05:50:10;;;;;;;18.40;8.57;;;13.30;99.90;;;;;;4995788;28;20034;-76
2022/10/25 05:52:35;;;;;;;18.48;7.93;;;13.30;99.90;;;;;;4992141;28;20041;-76
2022/10/25 05:55:01;;;;;;;16.92;8.50;;;13.40;99.90;;;;;;4977632;28;20121;-76
2022/10/25 05:57:26;;;;;;;13.23;7.72;;;13.40;99.90;;;;;;4992303;28;20101;-76
2022/10/25 05:59:52;;;;;;;16.45;9.25;;;13.40;99.90;;;;;;4974446;28;20050;-76
2022/10/25 06:02:18;;;;;;;15.70;8.90;;;13.40;99.90;;;;;;4977223;28;20046;-76
2022/10/25 06:04:44;;;;;;;16.38;8.10;;;13.40;99.90;;;;;;4981808;28;20560;-76
2022/10/25 06:07:09;;;;;;;13.75;7.65;;;13.40;99.90;;;;;;5009996;28;20038;-76
2022/10/25 06:09:35;;;;;;;13.73;8.35;;;13.40;99.90;;;;;;5007325;28;20034;-76
2022/10/25 06:12:00;;;;;;;17.85;7.32;;;13.30;99.90;;;;;;4992565;28;20034;-76
2022/10/25 06:14:26;;;;;;;18.20;8.02;;;13.40;99.90;;;;;;4991772;28;20399;-76
2022/10/25 06:16:52;;;;;;;20.30;7.57;;;13.40;99.90;;;;;;4976066;28;20244;-76
2022/10/25 06:19:17;;;;;;;16.10;6.97;;;13.30;99.90;;;;;;4975588;28;20064;-76
2022/10/25 06:21:43;;;;;;;15.07;6.70;;;13.30;99.90;;;;;;4975245;28;20042;-76
2022/10/25 06:24:09;;;;;;;13.05;6.95;;;13.30;99.90;;;;;;4990814;28;20046;-76
2022/10/25 06:26:34;;;;;;;15.60;6.88;;;13.30;99.90;;;;;;4988944;28;20404;-77
2022/10/25 06:29:02;;;;;;;13.00;5.82;;;13.30;99.90;;;;;;5025513;28;20117;-77
2022/10/25 06:31:28;;;;;;;14.32;6.68;;;13.40;99.90;;;;;;4992510;28;20042;-76
2022/10/25 06:33:54;;;;;;;15.73;6.65;;;13.30;99.90;;;;;;4993173;28;20114;-77
2022/10/25 06:36:22;;;;;;;16.58;6.88;;;13.20;99.90;;;;;;4976661;28;20148;-77
2022/10/25 06:38:48;;;;;;;14.73;6.35;;;13.20;99.90;;;;;;4976827;28;20050;-76
2022/10/25 06:41:17;;;;;;;13.70;6.32;;;13.20;99.90;;;;;;4992811;28;20038;-77
2022/10/25 06:43:42;;;;;;;15.40;7.00;;;13.20;99.90;;;;;;4993878;28;20081;-76
2022/10/25 06:46:13;;;;;;;17.15;6.88;;;13.30;99.90;;;;;;4993095;28;20049;-76
2022/10/25 06:48:39;;;;;;;14.50;5.75;;;13.30;99.90;;;;;;4993047;28;20057;-76
2022/10/25 06:51:08;;;;;;;15.20;6.15;;;13.30;99.90;;;;;;5025236;28;20489;-76
2022/10/25 06:53:34;;;;;;;17.63;6.43;;;13.30;99.90;;;;;;4976522;28;20120;-76
2022/10/25 06:56:05;;;;;;;14.40;5.90;;;13.30;99.90;;;;;;4993550;28;20066;-76
2022/10/25 06:58:32;;;;;;;17.52;6.43;;;13.30;99.90;;;;;;5025324;28;20500;-76
2022/10/25 07:01:06;;;;;;;17.50;6.97;;;13.30;99.90;;;;;;4977250;28;20057;-76
2022/10/25 07:03:35;;;;;;;18.45;6.55;;;13.40;99.90;;;;;;4992492;28;20038;-76
2022/10/25 07:06:11;;;;;;;16.38;6.18;;;13.30;99.90;;;;;;4990309;28;20522;-76
2022/10/25 07:08:39;;;;;;;17.40;6.97;;;13.40;99.90;;;;;;4993299;28;20052;-76
2022/10/25 07:11:05;;;;;;;12.80;6.40;;;13.30;99.90;;;;;;4992444;28;20041;-76
2022/10/25 07:13:33;;;;;;;14.27;7.07;;;13.40;99.90;;;;;;5025962;28;20121;-76
2022/10/25 07:16:03;;;;;;;13.32;6.05;;;13.40;99.90;;;;;;5021361;28;20046;-76
2022/10/25 07:18:30;;;;;;;15.15;6.65;;;13.40;99.90;;;;;;4977076;28;20057;-76
2022/10/25 07:21:06;;;;;;;14.73;6.60;;;13.40;99.90;;;;;;4975891;28;20092;-76
2022/10/25 07:23:33;;;;;;;15.00;6.93;;;13.40;99.90;;;;;;4976178;28;20538;-76
2022/10/25 07:25:59;;;;;;;16.00;6.43;;;13.40;99.90;;;;;;4992190;28;20034;-76
2022/10/25 07:28:25;;;;;;;15.20;6.68;;;13.40;99.90;;;;;;4976684;28;20492;-76
2022/10/25 07:30:51;;;;;;;18.80;7.32;;;13.40;99.90;;;;;;4985102;28;20041;-76
2022/10/25 07:33:19;;;;;;;17.92;6.68;;;13.40;99.90;;;;;;4976885;28;20034;-76
2022/10/25 07:35:46;;;;;;;17.45;6.90;;;13.40;99.90;;;;;;4973803;28;20049;-76
2022/10/25 07:38:12;;;;;;;21.08;7.13;;;13.40;99.90;;;;;;4992825;28;20038;-76
2022/10/25 07:40:39;;;;;;;16.40;6.47;;;13.50;99.90;;;;;;4991937;28;20125;-76
2022/10/25 07:43:04;;;;;;;17.33;7.18;;;13.50;99.90;;;;;;4976445;28;20041;-76
2022/10/25 07:45:30;;;;;;;14.65;5.70;;;13.60;99.90;;;;;;4992246;28;20038;-76
2022/10/25 07:47:55;;;;;;;16.77;6.15;;;13.60;99.90;;;;;;4992690;28;20042;-76
2022/10/25 07:50:21;;;;;;;17.85;6.88;;;13.60;99.90;;;;;;4991564;28;20081;-76
2022/10/25 07:52:47;;;;;;;17.23;6.57;;;13.60;99.90;;;;;;5024654;28;20042;-77
2022/10/25 07:55:12;;;;;;;18.17;6.47;;;13.70;99.90;;;;;;4991493;28;20049;-77
2022/10/25 07:57:38;;;;;;;17.63;6.90;;;13.80;99.90;;;;;;5025354;28;20397;-76
2022/10/25 08:00:05;;;;;;;19.80;7.40;;;13.80;99.90;;;;;;4990852;28;20626;-76
2022/10/25 08:02:31;;;;;;;16.13;6.97;;;13.90;99.90;;;;;;4976396;28;20045;-76
2022/10/25 08:04:57;;;;;;;16.00;7.22;;;13.90;99.90;;;;;;4991615;28;20044;-76
2022/10/25 08:07:22;;;;;;;16.35;5.85;;;14.00;99.90;;;;;;5008855;28;20042;-76
2022/10/25 08:09:48;;;;;;;14.93;6.75;;;13.90;99.90;;;;;;4975157;28;20042;-76
2022/10/25 08:12:13;;;;;;;24.00;8.80;;;14.00;99.90;;;;;;5008820;28;20060;-76
2022/10/25 08:14:39;;;;;;;15.73;6.78;;;13.90;99.90;;;;;;5007841;28;20038;-77
2022/10/25 08:17:04;;;;;;;17.92;7.05;;;14.00;99.90;;;;;;5004691;28;20378;-76
2022/10/25 08:19:30;;;;;;;20.73;7.80;;;13.90;99.90;;;;;;4985527;28;20047;-77
2022/10/25 08:21:56;;;;;;;17.85;8.00;;;13.90;99.90;;;;;;5025288;28;20038;-77
2022/10/25 08:24:21;;;;;;;20.52;7.30;;;14.00;99.90;;;;;;4988632;28;20038;-77
2022/10/25 08:26:47;;;;;;;20.55;8.20;;;14.00;99.90;;;;;;4994367;28;20046;-79
2022/10/25 08:29:12;;;;;;;20.13;7.25;;;14.20;99.90;;;;;;5008692;28;20424;-76
2022/10/25 08:31:38;;;;;;;17.23;7.35;;;14.20;99.90;;;;;;5028345;28;20089;-77
2022/10/25 08:34:03;;;;;;;19.30;7.55;;;14.30;99.90;;;;;;4993681;28;20136;-77
2022/10/25 08:36:29;;;;;;;19.25;7.68;;;14.30;99.90;;;;;;5025640;28;20042;-77
2022/10/25 08:38:54;;;;;;;19.13;8.88;;;14.30;99.90;;;;;;5009558;28;20046;-77
2022/10/25 08:41:51;;;;;;;17.45;8.32;;;14.30;99.90;;;;;;5012418;28;20527;-77
2022/10/25 08:44:39;;;;;;;18.33;7.80;;;14.40;99.90;;;;;;5011324;28;20050;-77
2022/10/25 08:47:34;;;;;;;18.42;8.05;;;14.50;99.90;;;;;;5012275;28;20048;-77
2022/10/25 08:50:12;;;;;;;19.25;7.95;;;14.50;99.90;;;;;;4994791;28;20046;-77
2022/10/25 08:52:52;;;;;;;17.30;7.97;;;14.50;99.90;;;;;;5011291;28;20052;-77
2022/10/25 08:55:33;;;;;;;17.70;7.22;;;14.60;99.90;;;;;;4994366;28;20520;-77
2022/10/25 08:58:01;;;;;;;13.77;8.65;;;14.60;99.90;;;;;;4992577;28;20150;-77
2022/10/25 09:00:34;;;;;;;17.13;7.97;;;14.60;99.90;;;;;;4991056;28;20030;-78
2022/10/25 09:03:02;;;;;;;18.77;7.22;;;14.60;99.90;;;;;;4995557;28;20069;-78
2022/10/25 09:05:40;;;;;;;21.48;8.18;;;14.60;99.90;;;;;;4995459;28;20085;-77
2022/10/25 09:08:09;;;;;;;17.20;8.15;;;14.60;99.90;;;;;;4978495;28;20046;-77
2022/10/25 09:10:53;;;;;;;19.38;7.78;;;14.70;99.90;;;;;;4962063;28;20072;-78
2022/10/25 09:13:48;;;;;;;23.08;8.07;;;14.70;99.90;;;;;;4969939;28;20038;-77
2022/10/25 09:16:20;;;;;;;13.95;6.75;;;14.80;99.90;;;;;;4983136;28;20039;-77
2022/10/25 09:18:55;;;;;;;18.38;7.18;;;14.80;99.90;;;;;;5011551;28;20058;-77
2022/10/25 09:21:39;;;;;;;15.15;5.82;;;14.80;99.90;;;;;;4992871;28;20500;-77
2022/10/25 09:24:16;;;;;;;15.13;5.88;;;14.90;99.90;;;;;;4991663;28;20042;-77
2022/10/25 09:27:04;;;;;;;13.55;6.18;;;14.90;99.90;;;;;;4995022;28;20076;-78
2022/10/25 09:29:38;;;;;;;15.80;6.20;;;15.00;99.90;;;;;;4984172;28;20492;-84
2022/10/25 09:32:16;;;;;;;15.93;5.78;;;15.10;99.90;;;;;;5013934;28;20091;-77
2022/10/25 09:34:42;;;;;;;16.95;6.05;;;15.20;99.90;;;;;;4985718;28;20050;-77
2022/10/25 09:37:22;;;;;;;13.40;5.63;;;15.20;99.90;;;;;;5010856;28;20484;-77
2022/10/25 09:40:02;;;;;;;14.60;5.18;;;15.30;99.90;;;;;;4993410;28;20050;-76
2022/10/25 09:42:35;;;;;;;13.98;5.25;;;15.30;99.90;;;;;;4994942;28;20039;-77
2022/10/25 09:45:06;;;;;;;19.23;8.80;;;15.20;99.90;;;;;;5009894;28;20046;-77
2022/10/25 09:47:43;;;;;;;14.90;5.28;;;15.30;99.90;;;;;;4995434;28;20046;-77
2022/10/25 09:50:15;;;;;;;11.90;5.00;;;15.40;99.90;;;;;;5009023;28;20050;-78
2022/10/25 09:53:16;;;;;;;11.82;4.68;;;15.30;99.90;;;;;;5011337;28;20034;-76
2022/10/25 09:55:52;;;;;;;15.88;5.88;;;15.30;99.90;;;;;;5000764;28;20080;-76
2022/10/25 09:58:23;;;;;;;12.55;5.20;;;15.30;99.90;;;;;;4997796;28;20081;-76
2022/10/25 10:00:50;;;;;;;13.68;4.55;;;15.20;99.90;;;;;;5003869;28;20046;-76
2022/10/25 10:03:17;;;;;;;14.65;4.88;;;15.20;99.90;;;;;;4991207;28;20042;-76
2022/10/25 10:05:54;;;;;;;14.93;4.97;;;15.20;99.90;;;;;;4994439;28;20078;-77
2022/10/25 10:08:19;;;;;;;13.40;4.65;;;15.20;99.90;;;;;;4977339;28;20101;-76
2022/10/25 10:10:47;;;;;;;11.68;4.65;;;15.20;99.90;;;;;;4994685;28;20046;-79
2022/10/25 10:13:40;;;;;;;15.07;5.00;;;15.30;99.90;;;;;;5009613;28;20053;-75
2022/10/25 10:16:43;;;;;;;15.05;4.85;;;15.20;99.90;;;;;;5009918;28;20042;-76
2022/10/25 10:19:12;;;;;;;11.75;4.20;;;15.20;99.90;;;;;;4941124;28;20058;-76
2022/10/25 10:21:42;;;;;;;12.65;4.15;;;15.20;99.90;;;;;;5002577;28;20057;-76
2022/10/25 10:24:17;;;;;;;12.93;4.53;;;15.20;99.90;;;;;;5010532;28;20129;-76
2022/10/25 10:26:48;;;;;;;10.57;4.43;;;15.40;99.90;;;;;;5009973;28;20411;-76
2022/10/25 10:29:20;;;;;;;11.73;4.38;;;15.40;99.90;;;;;;4994004;28;20508;-76
2022/10/25 10:31:52;;;;;;;14.85;4.78;;;15.40;99.90;;;;;;4976429;28;20369;-76
2022/10/25 10:34:41;;;;;;;12.65;4.10;;;15.50;99.90;;;;;;5009403;28;20049;-76
2022/10/25 10:37:29;;;;;;;11.85;4.25;;;15.50;99.90;;;;;;5009218;28;20050;-76
2022/10/25 10:39:57;;;;;;;13.45;4.30;;;15.40;99.90;;;;;;4993926;28;20046;-76
2022/10/25 10:42:31;;;;;;;11.48;3.45;;;15.40;99.90;;;;;;4990367;28;20038;-76
2022/10/25 10:45:09;;;;;;;9.50;3.60;;;15.40;99.90;;;;;;5023831;28;20049;-76
2022/10/25 10:47:36;;;;;;;11.85;4.05;;;15.40;99.90;;;;;;4973584;28;20042;-76
2022/10/25 10:50:22;;;;;;;12.27;3.92;;;15.40;99.90;;;;;;4987203;28;20208;-76
2022/10/25 10:52:58;;;;;;;9.00;4.05;;;15.50;99.90;;;;;;4993483;28;20408;-76
2022/10/25 10:55:36;;;;;;;13.43;3.95;;;15.50;99.90;;;;;;4991696;28;20045;-76
2022/10/25 10:58:33;;;;;;;12.95;4.68;;;15.60;99.90;;;;;;4999864;28;20512;-75
2022/10/25 11:01:11;;;;;;;9.70;4.25;;;15.60;99.90;;;;;;5009057;28;20403;-76
2022/10/25 11:03:39;;;;;;;12.60;3.78;;;15.70;99.90;;;;;;5005888;28;20069;-76
2022/10/25 11:06:14;;;;;;;12.95;3.95;;;15.70;99.90;;;;;;5011809;28;20042;-76
2022/10/25 11:08:41;;;;;;;14.40;4.10;;;15.70;99.90;;;;;;4991453;28;20042;-76
2022/10/25 11:11:19;;;;;;;12.32;3.70;;;15.70;99.90;;;;;;5024605;28;20081;-76
2022/10/25 11:13:59;;;;;;;12.02;3.70;;;15.80;99.90;;;;;;4982710;28;20092;-76
2022/10/25 11:16:37;;;;;;;10.40;3.05;;;15.90;99.90;;;;;;5001391;28;20049;-76
2022/10/25 11:19:21;;;;;;;11.88;3.28;;;15.90;99.90;;;;;;5003847;28;20080;-76
2022/10/25 11:22:07;;;;;;;9.45;2.85;;;15.90;99.90;;;;;;4989146;28;20042;-76
2022/10/25 11:24:39;;;;;;;9.38;2.83;;;16.00;99.90;;;;;;4992947;28;20447;-76
2022/10/25 11:27:37;;;;;;;9.90;3.17;;;16.10;99.90;;;;;;4994616;28;20046;-83
2022/10/25 11:30:07;;;;;;;9.40;2.80;;;16.10;99.90;;;;;;4998495;28;20049;-78
2022/10/25 11:32:35;;;;;;;12.32;3.28;;;16.10;99.90;;;;;;4993525;28;20439;-77
2022/10/25 11:35:28;;;;;;;11.68;3.30;;;16.20;99.90;;;;;;4990614;28;20508;-77
2022/10/25 11:37:59;;;;;;;10.65;3.17;;;16.20;99.90;;;;;;4991484;28;20034;-77
2022/10/25 11:40:44;;;;;;;8.97;2.87;;;16.20;99.90;;;;;;4991002;28;20034;-77
2022/10/25 11:43:54;;;;;;;9.73;3.13;;;16.10;99.90;;;;;;4992721;28;20038;-77
2022/10/25 11:46:47;;;;;;;9.80;2.85;;;16.10;99.90;;;;;;4991291;28;20047;-77
2022/10/25 11:49:54;;;;;;;10.65;3.33;;;16.00;99.90;;;;;;5006662;28;20050;-77
2022/10/25 11:52:48;;;;;;;10.85;2.90;;;16.00;99.90;;;;;;5007098;28;20053;-77
2022/10/25 11:55:38;;;;;;;9.52;3.10;;;16.00;99.90;;;;;;4989452;28;20043;-77
2022/10/25 11:58:04;;;;;;;9.05;3.13;;;15.90;99.90;;;;;;5007164;28;20058;-77
2022/10/25 12:00:48;;;;;;;9.93;3.20;;;15.90;99.90;;;;;;5007774;28;20566;-77
2022/10/25 12:03:38;;;;;;;10.52;2.92;;;16.00;99.90;;;;;;5008439;28;20117;-77
2022/10/25 12:06:16;;;;;;;13.43;3.55;;;15.90;99.90;;;;;;4991405;28;20046;-77
2022/10/25 12:08:48;;;;;;;9.77;2.85;;;16.00;99.90;;;;;;4990723;28;20046;-77
2022/10/25 12:11:30;;;;;;;13.25;3.38;;;16.00;99.90;;;;;;4976084;28;20156;-77
2022/10/25 12:13:59;;;;;;;9.75;2.63;;;16.00;99.90;;;;;;5008177;28;20050;-77
2022/10/25 12:16:27;;;;;;;9.40;3.03;;;16.10;99.90;;;;;;4990082;28;20388;-78
2022/10/25 12:19:18;;;;;;;18.17;3.45;;;16.20;99.90;;;;;;4986438;28;20052;-77
2022/10/25 12:22:00;;;;;;;9.98;3.08;;;16.30;99.90;;;;;;4990623;28;20038;-77
2022/10/25 12:24:36;;;;;;;9.70;3.13;;;16.20;99.90;;;;;;4991766;28;20520;-77
2022/10/25 12:27:02;;;;;;;10.77;3.28;;;16.20;99.90;;;;;;5006133;28;20073;-77
2022/10/25 12:29:36;;;;;;;8.20;3.10;;;16.10;99.90;;;;;;5001143;28;20050;-77
2022/10/25 12:32:08;;;;;;;10.55;2.95;;;16.00;99.90;;;;;;4975198;28;20046;-77
2022/10/25 12:34:59;;;;;;;8.40;2.88;;;16.00;99.90;;;;;;4991860;28;20496;-77
2022/10/25 12:37:50;;;;;;;9.27;3.05;;;16.00;99.90;;;;;;4990943;28;20042;-77
2022/10/25 12:40:19;;;;;;;8.65;3.03;;;16.00;99.90;;;;;;5006503;28;20050;-77
2022/10/25 12:42:50;;;;;;;10.30;3.15;;;16.00;99.90;;;;;;5000215;28;20035;-77
2022/10/25 12:45:53;;;;;;;8.80;3.00;;;16.00;99.90;;;;;;4972446;28;20073;-77
2022/10/25 12:48:43;;;;;;;8.68;3.58;;;16.00;99.90;;;;;;4975558;28;20061;-75
2022/10/25 12:51:33;;;;;;;9.05;2.92;;;15.80;99.90;;;;;;4971287;28;20049;-75
2022/10/25 12:54:18;;;;;;;10.43;3.17;;;15.80;99.90;;;;;;4990099;28;20118;-75
2022/10/25 12:57:03;;;;;;;14.18;3.67;;;15.70;99.90;;;;;;5022559;28;20073;-75
2022/10/25 12:59:35;;;;;;;7.40;2.83;;;15.70;99.90;;;;;;4991368;28;20054;-75